Time;durP1;ratioP1;P1;durP2;ratioP2;P2;SDS_P1;SDS_P2;PMS_P1;PMS_P2;Temp;Humidity;BMP_temperature;BMP_pressure;BME280_temperature;BME280_humidity;BME280_pressure;Samples;Min_cycle;Max_cycle;Signal;HPM_P1;HPM_P2
2023/10/29 00:01:36;;;;;;;17.40;16.70;;;;;;;-141.02;100.00;41173.84;5134281;27;20657;-62
2023/10/29 00:04:03;;;;;;;17.05;16.35;;;;;;;-141.02;100.00;41170.00;5136205;27;20281;-68
2023/10/29 00:09:54;;;;;;;16.45;15.85;;;;;;;-141.02;100.00;40981.97;5135780;27;20252;-62
2023/10/29 00:12:26;;;;;;;16.30;15.70;;;;;;;-141.02;100.00;40934.00;5136043;27;20193;-62
2023/10/29 00:15:17;;;;;;;15.77;15.18;;;;;;;-141.02;100.00;40801.63;5135607;27;20193;-62
2023/10/29 00:18:22;;;;;;;15.10;14.60;;;;;;;-141.02;100.00;40744.06;5135636;27;20283;-62
2023/10/29 00:20:52;;;;;;;14.60;14.10;;;;;;;-141.02;100.00;40690.34;5136122;27;20193;-62
2023/10/29 00:23:19;;;;;;;14.77;14.27;;;;;;;-141.02;100.00;40657.72;5135747;27;20224;-62
2023/10/29 00:25:50;;;;;;;14.85;14.35;;;;;;;-141.02;100.00;40632.78;5135820;27;20253;-62
2023/10/29 00:28:17;;;;;;;13.50;13.10;;;;;;;-141.02;100.00;40605.94;5135428;27;20726;-62
2023/10/29 00:30:44;;;;;;;13.93;13.52;;;;;;;-141.02;100.00;40640.47;5135771;27;20203;-62
2023/10/29 00:33:15;;;;;;;14.77;14.27;;;;;;;-141.02;100.00;40617.44;5135252;27;20662;-62
2023/10/29 00:36:09;;;;;;;14.40;13.90;;;;;;;-141.02;100.00;40640.47;5135229;27;20628;-62
2023/10/29 00:38:36;;;;;;;14.65;14.15;;;;;;;-141.02;100.00;40640.47;5135269;27;20196;-62
2023/10/29 00:41:05;;;;;;;14.80;14.30;;;;;;;-141.02;100.00;40648.13;5135506;27;20200;-62
2023/10/29 00:46:18;;;;;;;14.63;14.13;;;;;;;-141.02;100.00;40571.41;5133442;27;20287;-62
2023/10/29 00:48:48;;;;;;;14.80;14.30;;;;;;;-141.02;100.00;40531.09;5132986;27;20374;-62
2023/10/29 00:51:19;;;;;;;14.68;14.18;;;;;;;-141.02;100.00;40460.13;5132967;27;20204;-62
2023/10/29 00:53:46;;;;;;;14.80;14.30;;;;;;;-141.02;100.00;40462.03;5132934;27;20195;-62
2023/10/29 00:56:16;;;;;;;14.38;13.88;;;;;;;-141.02;100.00;40433.28;5132839;27;20203;-62
2023/10/29 00:58:43;;;;;;;13.90;13.45;;;;;;;-141.02;100.00;40437.09;5133227;27;20201;-62
2023/10/29 01:04:34;;;;;;;13.73;13.32;;;;;;;-141.02;100.00;40391.06;5133147;27;20278;-62
2023/10/29 01:07:03;;;;;;;13.40;13.00;;;;;;;-141.02;100.00;40368.03;5132622;27;20192;-62
2023/10/29 01:09:35;;;;;;;13.18;12.77;;;;;;;-141.02;100.00;40381.47;5132592;27;20678;-62
2023/10/29 01:12:30;;;;;;;12.75;12.35;;;;;;;-141.02;100.00;40364.22;5132249;27;20202;-62
2023/10/29 01:15:42;;;;;;;12.80;12.40;;;;;;;-141.02;100.00;40358.47;5132450;27;20230;-62
2023/10/29 01:18:48;;;;;;;12.90;12.50;;;;;;;-141.02;100.00;40345.03;5132501;27;20254;-62
2023/10/29 01:24:41;;;;;;;13.18;12.77;;;;;;;-141.02;100.00;40291.31;5134352;27;20231;-62
2023/10/29 01:27:11;;;;;;;12.80;12.40;;;;;;;-141.02;100.00;40308.56;5134244;27;20268;-62
2023/10/29 01:33:51;;;;;;;12.90;12.50;;;;;;;-141.02;100.00;40268.28;5134320;27;20218;-62
2023/10/29 01:36:21;;;;;;;12.40;12.00;;;;;;;-141.02;100.00;40228.00;5127391;27;20224;-62
2023/10/29 01:38:58;;;;;;;12.60;12.20;;;;;;;-141.02;100.00;40180.06;5134064;27;20192;-62
2023/10/29 01:45:17;;;;;;;12.70;12.30;;;;;;;-141.02;100.00;40091.81;5134046;27;20211;-62
2023/10/29 01:47:49;;;;;;;11.95;11.55;;;;;;;-141.02;100.00;40118.66;5134183;27;20188;-62
2023/10/29 01:53:41;;;;;;;12.70;12.30;;;;;;;-141.02;100.00;40111.00;5134137;27;20248;-62
2023/10/29 01:56:11;;;;;;;12.40;12.00;;;;;;;-141.02;100.00;40107.16;5134634;27;20193;-62
2023/10/29 01:58:43;;;;;;;12.80;12.40;;;;;;;-141.02;100.00;40084.16;5133584;27;20203;-62
2023/10/29 02:05:01;;;;;;;13.20;12.80;;;;;;;-141.02;100.00;40057.28;5133652;27;20203;-62
2023/10/29 02:07:37;;;;;;;12.85;12.45;;;;;;;-141.02;100.00;40053.44;5133784;27;20239;-62
2023/10/29 02:13:25;;;;;;;12.82;12.43;;;;;;;-141.02;100.00;40095.66;5133872;27;20183;-62
2023/10/29 02:16:42;;;;;;;12.63;12.23;;;;;;;-141.02;100.00;40091.81;5133375;27;20199;-62
2023/10/29 02:19:09;;;;;;;12.75;12.35;;;;;;;-141.02;100.00;40076.47;5133307;27;20727;-62
2023/10/29 02:21:37;;;;;;;12.80;12.40;;;;;;;-141.02;100.00;40068.78;5133311;27;20227;-62
2023/10/29 02:24:06;;;;;;;12.80;12.40;;;;;;;-141.02;100.00;40053.44;5132693;27;20224;-68
2023/10/29 02:26:33;;;;;;;12.95;12.55;;;;;;;-141.02;100.00;40040.03;5133268;27;20228;-62
2023/10/29 02:32:26;;;;;;;12.05;11.68;;;;;;;-141.02;100.00;39903.84;5133575;27;20240;-62
2023/10/29 02:35:29;;;;;;;12.23;11.83;;;;;;;-141.02;100.00;39961.38;5133116;27;20646;-62
2023/10/29 02:37:56;;;;;;;13.02;12.63;;;;;;;-141.02;100.00;39999.75;5132920;27;20723;-62
2023/10/29 02:41:17;;;;;;;13.13;12.73;;;;;;;-141.02;100.00;40018.94;5133330;27;20260;-62
2023/10/29 02:48:00;;;;;;;13.10;12.70;;;;;;;-141.02;100.00;39965.22;5133808;28;20218;-62
2023/10/29 02:51:21;;;;;;;12.80;12.40;;;;;;;-141.02;100.00;39915.34;5132926;27;20287;-62
2023/10/29 02:53:49;;;;;;;12.65;12.25;;;;;;;-141.02;100.00;39930.69;5133192;27;20197;-62
2023/10/29 02:56:16;;;;;;;23.30;22.40;;;;;;;-141.02;100.00;39880.81;5132855;28;20236;-62
2023/10/29 02:58:43;;;;;;;31.20;29.80;;;;;;;-141.02;100.00;39855.88;5133088;28;20659;-62
2023/10/29 03:01:10;;;;;;;28.85;27.65;;;;;;;-141.02;100.00;39825.19;5132800;28;20674;-62
2023/10/29 03:03:38;;;;;;;28.90;27.70;;;;;;;-141.02;100.00;39786.84;5132587;28;20216;-61
2023/10/29 03:06:06;;;;;;;26.58;25.58;;;;;;;-141.02;100.00;39760.00;5133050;28;20279;-62
2023/10/29 03:09:16;;;;;;;28.20;27.10;;;;;;;-141.02;100.00;39698.63;5132765;28;20192;-62
2023/10/29 03:11:54;;;;;;;28.20;27.10;;;;;;;-141.02;100.00;39667.94;5133253;27;20180;-62
2023/10/29 03:14:24;;;;;;;28.02;26.92;;;;;;;-141.02;100.00;39619.97;5132761;27;20200;-62
2023/10/29 03:16:51;;;;;;;27.05;25.95;;;;;;;-141.02;100.00;39641.06;5132553;28;20188;-62
2023/10/29 03:22:39;;;;;;;24.38;23.48;;;;;;;-141.02;100.00;39646.81;5132714;28;20195;-62
2023/10/29 03:28:30;;;;;;;26.95;25.85;;;;;;;-141.02;100.00;39587.38;5132714;28;20180;-62
2023/10/29 03:35:07;;;;;;;25.73;24.73;;;;;;;-141.02;100.00;39462.72;5133530;27;20708;-62
2023/10/29 03:37:35;;;;;;;25.58;24.58;;;;;;;-141.02;100.00;39409.00;5126340;27;20224;-62
2023/10/29 03:40:44;;;;;;;25.33;24.33;;;;;;;-141.02;100.00;39395.59;5136673;27;20192;-62
2023/10/29 03:43:41;;;;;;;27.92;26.83;;;;;;;-141.02;100.00;39343.81;5136240;27;20196;-62
2023/10/29 03:56:16;;;;;;;25.67;24.67;;;;;;;-141.02;100.00;39343.81;5136554;27;20646;-62
2023/10/29 04:02:06;;;;;;;26.35;25.35;;;;;;;-141.02;100.00;39301.63;5136144;27;20180;-62
2023/10/29 04:04:34;;;;;;;26.00;25.00;;;;;;;-141.02;100.00;39270.94;5136136;27;20277;-62
2023/10/29 04:07:04;;;;;;;21.15;20.45;;;;;;;-141.02;100.00;39226.81;5136227;27;20569;-62
2023/10/29 04:09:31;;;;;;;26.17;25.17;;;;;;;-141.02;100.00;39171.22;5135782;27;20203;-62
2023/10/29 04:12:00;;;;;;;21.38;20.65;;;;;;;-141.02;100.00;39186.56;5136083;27;20219;-62
2023/10/29 04:18:12;;;;;;;26.40;25.40;;;;;;;-141.02;100.00;39119.44;5136124;27;20273;-62
2023/10/29 04:21:14;;;;;;;20.57;19.87;;;;;;;-141.02;100.00;39081.09;5135704;27;20192;-62
2023/10/29 04:23:41;;;;;;;17.80;17.20;;;;;;;-141.02;100.00;39012.06;5135885;27;20693;-62
2023/10/29 04:29:36;;;;;;;22.90;22.10;;;;;;;-141.02;100.00;38902.75;5135629;27;20233;-62
2023/10/29 04:32:02;;;;;;;20.63;19.93;;;;;;;-141.02;100.00;38866.31;5135422;27;20279;-62
2023/10/29 04:34:31;;;;;;;23.53;22.63;;;;;;;-141.02;100.00;38818.38;5135671;27;20199;-62
2023/10/29 04:36:58;;;;;;;21.63;20.83;;;;;;;-141.02;100.00;38780.03;5135149;27;20188;-62
2023/10/29 04:39:25;;;;;;;20.65;19.95;;;;;;;-141.02;100.00;38751.28;5135534;27;20275;-62
2023/10/29 04:41:52;;;;;;;20.83;20.13;;;;;;;-141.02;100.00;38743.59;5135588;27;20231;-62
2023/10/29 04:44:19;;;;;;;25.00;24.00;;;;;;;-141.02;100.00;38768.53;5135422;27;20259;-62
2023/10/29 04:46:46;;;;;;;19.07;18.47;;;;;;;-141.02;100.00;38812.63;5134378;27;20254;-62
2023/10/29 04:49:13;;;;;;;21.77;20.97;;;;;;;-141.02;100.00;38818.38;5135307;27;20224;-68
2023/10/29 04:51:41;;;;;;;22.77;21.98;;;;;;;-141.02;100.00;38891.25;5135477;27;20199;-62
2023/10/29 04:54:10;;;;;;;19.00;18.40;;;;;;;-141.02;100.00;38937.28;5135030;27;20682;-62
2023/10/29 04:56:37;;;;;;;18.23;17.63;;;;;;;-141.02;100.00;39038.91;5135202;27;20196;-62
2023/10/29 04:59:04;;;;;;;20.23;19.53;;;;;;;-141.02;100.00;39084.91;5135000;27;20257;-62
2023/10/29 05:01:30;;;;;;;13.10;12.70;;;;;;;-141.02;100.00;39196.16;5135091;27;20193;-62
2023/10/29 05:03:57;;;;;;;21.20;20.47;;;;;;;-141.02;100.00;39276.69;5135095;27;20311;-62
2023/10/29 05:06:24;;;;;;;21.53;20.73;;;;;;;-141.02;100.00;39334.22;5135118;27;20226;-62
2023/10/29 05:08:53;;;;;;;20.87;20.17;;;;;;;-141.02;100.00;39416.69;5135004;27;20273;-62
2023/10/29 05:11:20;;;;;;;23.80;22.90;;;;;;;-141.02;100.00;39466.53;5134644;27;20575;-62
2023/10/29 05:13:47;;;;;;;21.17;20.47;;;;;;;-141.02;100.00;39489.56;5134582;27;20720;-62
2023/10/29 05:16:15;;;;;;;19.08;18.48;;;;;;;-141.02;100.00;39489.56;5134961;27;20202;-62
2023/10/29 05:18:42;;;;;;;20.00;19.30;;;;;;;-141.02;100.00;39606.56;5134556;27;20291;-62
2023/10/29 05:21:09;;;;;;;19.60;18.90;;;;;;;-141.02;100.00;39623.81;5134793;27;20197;-62
2023/10/29 05:23:36;;;;;;;22.67;21.87;;;;;;;-141.02;100.00;39627.66;5134461;27;20224;-62
2023/10/29 05:26:04;;;;;;;21.87;21.07;;;;;;;-141.02;100.00;39621.91;5134507;27;20230;-62
2023/10/29 05:28:31;;;;;;;17.60;17.10;;;;;;;-141.02;100.00;39585.44;5134689;27;20270;-62
2023/10/29 05:30:58;;;;;;;22.05;21.25;;;;;;;-141.02;100.00;39654.50;5134471;27;20283;-62
2023/10/29 05:33:25;;;;;;;18.35;17.75;;;;;;;-141.02;100.00;39660.25;5134627;27;20271;-62
2023/10/29 05:35:53;;;;;;;20.30;19.60;;;;;;;-141.02;100.00;39681.34;5134446;27;20196;-62
2023/10/29 05:38:20;;;;;;;23.67;22.77;;;;;;;-141.02;100.00;39763.81;5134163;27;20232;-62
2023/10/29 05:40:47;;;;;;;21.25;20.55;;;;;;;-141.02;100.00;39846.28;5134073;27;20283;-62
2023/10/29 05:43:15;;;;;;;24.38;23.48;;;;;;;-141.02;100.00;39913.44;5134320;27;20193;-62
2023/10/29 05:45:42;;;;;;;25.75;24.80;;;;;;;-141.02;100.00;39972.88;5134256;27;20311;-62
2023/10/29 05:48:09;;;;;;;24.55;23.65;;;;;;;-141.02;100.00;39999.75;5134294;27;20220;-62
2023/10/29 05:50:36;;;;;;;25.55;24.55;;;;;;;-141.02;100.00;39988.22;5133936;27;20223;-62
2023/10/29 05:53:03;;;;;;;26.90;25.80;;;;;;;-141.02;100.00;40011.25;5134212;27;20220;-62
2023/10/29 05:55:30;;;;;;;29.55;28.35;;;;;;;-141.02;100.00;40091.81;5133780;27;20208;-62
2023/10/29 05:57:58;;;;;;;21.10;20.30;;;;;;;-141.02;100.00;40168.53;5133726;27;20724;-62
2023/10/29 06:00:26;;;;;;;19.27;18.58;;;;;;;-141.02;100.00;40164.72;5133710;27;20189;-62
2023/10/29 06:02:53;;;;;;;29.52;28.27;;;;;;;-141.02;100.00;40206.91;5134048;27;20195;-62
2023/10/29 06:05:20;;;;;;;15.48;14.98;;;;;;;-141.02;100.00;40210.75;5133571;27;20239;-62
2023/10/29 06:07:48;;;;;;;15.13;14.63;;;;;;;-141.02;100.00;40243.34;5133893;27;20275;-62
2023/10/29 06:10:15;;;;;;;15.05;14.55;;;;;;;-141.02;100.00;40293.22;5133824;27;20199;-62
2023/10/29 06:12:42;;;;;;;13.88;13.48;;;;;;;-141.02;100.00;40325.84;5133441;27;20202;-62
2023/10/29 06:15:10;;;;;;;14.20;13.80;;;;;;;-141.02;100.00;40341.19;5133832;27;20204;-62
2023/10/29 06:17:39;;;;;;;14.55;14.05;;;;;;;-141.02;100.00;40364.22;5133852;27;20225;-62
2023/10/29 06:20:08;;;;;;;14.13;13.73;;;;;;;-141.02;100.00;40356.53;5133715;27;20188;-62
2023/10/29 06:22:35;;;;;;;14.55;14.05;;;;;;;-141.02;100.00;40373.81;5133604;27;20715;-62
2023/10/29 06:25:02;;;;;;;14.70;14.20;;;;;;;-141.02;100.00;40435.19;5133196;27;20698;-62
2023/10/29 06:27:28;;;;;;;14.50;14.00;;;;;;;-141.02;100.00;40448.63;5133284;27;20658;-62
2023/10/29 06:29:55;;;;;;;14.65;14.15;;;;;;;-141.02;100.00;40440.94;5133181;27;20287;-62
2023/10/29 06:32:22;;;;;;;14.77;14.27;;;;;;;-141.02;100.00;40471.63;5133477;27;20223;-62
2023/10/29 06:34:53;;;;;;;15.00;14.50;;;;;;;-141.02;100.00;40471.63;5133473;27;20200;-62
2023/10/29 06:37:20;;;;;;;15.27;14.68;;;;;;;-141.02;100.00;40556.03;5133148;27;20315;-62
2023/10/29 06:39:48;;;;;;;15.43;14.85;;;;;;;-141.02;100.00;40571.41;5133075;27;20647;-62
2023/10/29 06:42:15;;;;;;;15.63;15.02;;;;;;;-141.02;100.00;40594.41;5133044;27;20203;-62
2023/10/29 06:44:42;;;;;;;15.90;15.30;;;;;;;-141.02;100.00;40661.56;5133296;27;20234;-62
2023/10/29 06:47:09;;;;;;;16.50;15.88;;;;;;;-141.02;100.00;40728.72;5132986;27;20196;-62
2023/10/29 06:49:36;;;;;;;16.25;15.55;;;;;;;-141.02;100.00;40728.72;5133243;28;20607;-62
2023/10/29 06:52:05;;;;;;;15.65;15.05;;;;;;;-141.02;100.00;40763.25;5133026;28;20688;-62
2023/10/29 06:54:32;;;;;;;16.90;16.20;;;;;;;-141.02;99.96;40790.09;5132893;28;20686;-62
2023/10/29 06:56:59;;;;;;;17.05;16.35;;;;;;;-141.02;100.00;40809.28;5132903;28;20779;-62
2023/10/29 06:59:26;;;;;;;17.73;17.02;;;;;;;-141.02;100.00;40851.50;5133040;28;20232;-62
2023/10/29 07:01:55;;;;;;;17.77;17.08;;;;;;;-141.02;99.30;40840.00;5133105;28;20279;-62
2023/10/29 07:04:22;;;;;;;17.30;16.60;;;;;;;-141.02;100.00;40809.28;5132728;28;20658;-62
2023/10/29 07:06:49;;;;;;;18.15;17.35;;;;;;;-141.02;98.75;40889.88;5132903;28;20203;-62
2023/10/29 07:09:18;;;;;;;18.05;17.25;;;;;;;-141.02;97.82;40912.91;5133784;27;20640;-62
2023/10/29 07:11:45;;;;;;;19.27;18.40;;;;;;;-141.02;97.77;40964.69;5137009;27;20188;-62
2023/10/29 07:14:13;;;;;;;19.98;19.08;;;;;;;-141.02;95.53;40989.66;5136994;27;20282;-62
2023/10/29 07:16:43;;;;;;;19.83;18.92;;;;;;;-141.02;94.79;41008.84;5136920;27;20278;-62
2023/10/29 07:19:11;;;;;;;20.10;19.20;;;;;;;-141.02;94.84;41033.78;5137258;27;20188;-62
2023/10/29 07:21:38;;;;;;;19.45;18.55;;;;;;;-141.02;93.21;41081.75;5136868;27;20192;-62
2023/10/29 07:24:05;;;;;;;19.75;18.85;;;;;;;-141.02;90.87;41112.44;5136753;27;20197;-62
2023/10/29 07:26:34;;;;;;;20.50;19.52;;;;;;;-141.02;90.31;41154.66;5136668;27;20322;-62
2023/10/29 07:29:01;;;;;;;20.55;19.55;;;;;;;-141.02;91.07;41194.94;5136647;27;20315;-62
2023/10/29 07:31:28;;;;;;;20.00;19.10;;;;;;;-141.02;90.37;41200.72;5136984;27;20291;-62
2023/10/29 07:33:55;;;;;;;20.60;19.60;;;;;;;-141.02;92.23;41235.25;5136945;27;20193;-62
2023/10/29 07:36:23;;;;;;;19.88;18.98;;;;;;;-141.02;90.05;41287.06;5136480;27;20719;-62
2023/10/29 07:38:50;;;;;;;20.20;19.30;;;;;;;-141.02;87.34;41292.81;5136419;27;20232;-62
2023/10/29 07:41:19;;;;;;;20.15;19.15;;;;;;;-141.02;87.78;41327.34;5137138;27;20231;-62
2023/10/29 07:43:48;;;;;;;19.73;18.83;;;;;;;-141.02;86.57;41331.19;5136450;27;20195;-62
2023/10/29 07:46:15;;;;;;;18.90;18.10;;;;;;;-141.02;88.50;41335.03;5136567;27;20231;-62
2023/10/29 07:48:42;;;;;;;19.88;18.98;;;;;;;-141.02;86.00;41377.25;5136438;27;20252;-62
2023/10/29 07:51:10;;;;;;;20.50;19.50;;;;;;;-141.02;83.78;41379.16;5136192;27;20647;-62
2023/10/29 07:53:37;;;;;;;19.60;18.70;;;;;;;-141.02;83.42;41411.78;5136394;27;20193;-62
2023/10/29 07:56:08;;;;;;;19.17;18.27;;;;;;;-141.02;81.90;41406.03;5136200;27;20742;-62
2023/10/29 07:58:36;;;;;;;18.52;17.73;;;;;;;-141.02;79.12;41446.31;5136150;27;20197;-62
2023/10/29 08:01:10;;;;;;;19.33;18.42;;;;;;;-141.02;75.50;41496.22;5136463;27;20194;-62
2023/10/29 08:03:37;;;;;;;18.90;18.00;;;;;;;-141.02;75.91;41549.94;5136409;27;20188;-62
2023/10/29 08:06:05;;;;;;;18.98;18.08;;;;;;;-141.02;76.26;41546.13;5135977;27;20705;-62
2023/10/29 08:08:32;;;;;;;19.80;18.80;;;;;;;-141.02;73.97;41567.22;5135856;27;20192;-62
2023/10/29 08:10:59;;;;;;;19.63;18.63;;;;;;;-141.02;74.62;41622.88;5135903;27;20228;-62
2023/10/29 08:13:26;;;;;;;20.02;19.02;;;;;;;-141.02;72.59;41645.91;5136162;27;20277;-62
2023/10/29 08:15:53;;;;;;;21.40;20.30;;;;;;;-141.02;71.75;41691.97;5136102;27;20271;-62
2023/10/29 08:18:23;;;;;;;21.00;19.90;;;;;;;-141.02;70.84;41730.34;5135736;27;20192;-62
2023/10/29 08:20:50;;;;;;;21.10;20.00;;;;;;;-141.02;70.45;41738.03;5134437;27;20253;-62
2023/10/29 08:23:16;;;;;;;21.25;20.15;;;;;;;-141.02;71.12;41764.88;5135858;27;20228;-62
2023/10/29 08:25:43;;;;;;;20.95;19.85;;;;;;;-141.02;68.08;41784.06;5135796;27;20228;-62
2023/10/29 08:28:10;;;;;;;21.38;20.27;;;;;;;-141.02;67.87;41841.66;5135594;27;20208;-62
2023/10/29 08:30:38;;;;;;;21.50;20.40;;;;;;;-141.02;66.29;41849.34;5135842;27;20284;-62
2023/10/29 08:33:05;;;;;;;21.17;20.08;;;;;;;-141.02;65.94;41899.22;5135687;27;20564;-62
2023/10/29 08:35:33;;;;;;;21.08;19.98;;;;;;;-141.02;65.61;41910.75;5135744;27;20296;-62
2023/10/29 08:38:00;;;;;;;20.67;19.58;;;;;;;-141.02;65.72;41949.13;5135095;27;20236;-62
2023/10/29 08:40:27;;;;;;;20.25;19.25;;;;;;;-141.02;65.51;41976.00;5135683;27;20192;-62
2023/10/29 08:42:54;;;;;;;21.08;19.98;;;;;;;-141.02;64.34;41991.34;5135277;27;20588;-62
2023/10/29 08:45:22;;;;;;;20.52;19.50;;;;;;;-141.02;64.31;42018.22;5135476;27;20307;-62
2023/10/29 08:47:49;;;;;;;20.85;19.75;;;;;;;-141.02;63.43;42064.28;5135560;27;20195;-66
2023/10/29 08:50:16;;;;;;;20.80;19.70;;;;;;;-141.02;62.85;42098.84;5135606;27;20198;-62
2023/10/29 08:52:44;;;;;;;20.98;19.88;;;;;;;-141.02;61.83;42121.88;5135428;27;20200;-62
2023/10/29 08:55:11;;;;;;;21.30;20.20;;;;;;;-141.02;63.80;42158.34;5135408;27;20283;-62
2023/10/29 08:57:38;;;;;;;21.33;20.23;;;;;;;-141.02;64.24;42152.56;5135025;27;20283;-62
2023/10/29 09:00:07;;;;;;;20.38;19.38;;;;;;;-141.02;nan;42141.06;5134966;27;20642;-62
2023/10/29 09:02:34;;;;;;;19.58;18.67;;;;;;;-141.02;65.64;42192.88;5135197;27;20226;-62
2023/10/29 09:05:01;;;;;;;20.25;19.25;;;;;;;-141.02;62.62;42198.63;5135371;27;20257;-62
2023/10/29 09:07:28;;;;;;;20.17;19.17;;;;;;;-141.02;62.65;42237.03;5134786;27;20199;-63
2023/10/29 09:09:57;;;;;;;19.92;18.92;;;;;;;-141.02;62.30;42233.19;5134852;27;20195;-62
2023/10/29 09:12:25;;;;;;;20.77;19.67;;;;;;;-141.02;63.32;42240.88;5135179;27;20196;-66
2023/10/29 09:14:52;;;;;;;21.08;19.98;;;;;;;-141.02;61.32;42286.94;5134942;27;20245;-66
2023/10/29 09:17:19;;;;;;;21.08;19.98;;;;;;;-141.02;62.19;42315.72;5134889;27;20192;-63
2023/10/29 09:19:46;;;;;;;20.38;19.27;;;;;;;-141.02;62.44;42325.31;5135182;27;20197;-62
2023/10/29 09:22:13;;;;;;;21.00;19.90;;;;;;;-141.02;61.21;42382.91;5134808;27;20189;-62
2023/10/29 09:24:40;;;;;;;20.65;19.48;;;;;;;-141.02;60.73;42394.41;5134735;27;20275;-63
2023/10/29 09:27:09;;;;;;;20.55;19.45;;;;;;;-141.02;59.49;42402.09;5134613;27;20262;-62
2023/10/29 09:29:36;;;;;;;23.83;22.52;;;;;;;-141.02;59.90;42459.69;5134737;27;20193;-62
2023/10/29 09:32:07;;;;;;;19.77;18.77;;;;;;;-141.02;59.71;42492.31;5134459;27;20192;-63
2023/10/29 09:34:34;;;;;;;19.60;18.60;;;;;;;-141.02;58.97;42509.59;5134583;27;20191;-62
2023/10/29 09:37:01;;;;;;;19.98;18.98;;;;;;;-141.02;60.56;42503.84;5134209;27;20227;-63
2023/10/29 09:39:28;;;;;;;20.20;19.20;;;;;;;-141.02;59.94;42524.94;5134181;27;20272;-62
2023/10/29 09:42:00;;;;;;;20.23;19.23;;;;;;;-141.02;59.54;42548.00;5134073;27;20553;-64
2023/10/29 09:44:32;;;;;;;20.23;19.23;;;;;;;-141.02;59.85;42578.69;5134682;27;20222;-62
2023/10/29 09:47:12;;;;;;;19.42;18.52;;;;;;;-141.02;60.26;42555.66;5134319;27;20220;-62
2023/10/29 09:49:39;;;;;;;19.98;18.98;;;;;;;-141.02;59.54;42536.47;5134310;27;20216;-62
2023/10/29 09:52:07;;;;;;;20.25;19.15;;;;;;;-141.02;59.92;42578.69;5133141;27;20283;-67
2023/10/29 09:54:35;;;;;;;20.05;19.05;;;;;;;-141.02;59.63;42594.06;5133801;27;20616;-62
2023/10/29 09:57:02;;;;;;;20.50;19.40;;;;;;;-141.02;58.47;42667.00;5134130;27;20227;-64
2023/10/29 09:59:30;;;;;;;19.70;18.70;;;;;;;-141.02;59.07;42620.94;5134189;27;20271;-66
2023/10/29 10:01:57;;;;;;;20.30;19.30;;;;;;;-141.02;59.41;42634.38;5134014;27;20224;-63
2023/10/29 10:04:24;;;;;;;20.08;19.08;;;;;;;-141.02;59.11;42628.63;5133883;27;20192;-62
2023/10/29 10:06:52;;;;;;;20.08;18.98;;;;;;;-141.02;58.90;42659.31;5133538;27;20327;-63
2023/10/29 10:09:19;;;;;;;20.25;19.15;;;;;;;-141.02;58.71;42682.34;5133856;27;20193;-62
2023/10/29 10:11:46;;;;;;;20.60;19.50;;;;;;;-141.02;58.58;42699.63;5133871;27;20257;-63
2023/10/29 10:14:26;;;;;;;20.05;18.95;;;;;;;-141.02;57.40;42707.31;5133811;27;20300;-63
2023/10/29 10:20:07;;;;;;;20.00;18.90;;;;;;;-141.02;57.89;42753.38;5110443;27;20541;-63
2023/10/29 10:22:37;;;;;;;19.98;18.88;;;;;;;-141.02;57.98;42766.81;5110213;28;20200;-67
2023/10/29 10:25:05;;;;;;;20.13;19.02;;;;;;;-141.02;58.32;42743.78;5110201;28;20229;-63
2023/10/29 10:27:47;;;;;;;20.00;18.90;;;;;;;-141.02;57.80;42793.69;5109792;28;20288;-63
2023/10/29 10:30:24;;;;;;;20.10;19.00;;;;;;;-141.02;57.00;42782.19;5110157;28;20264;-63
2023/10/29 10:32:51;;;;;;;20.50;19.30;;;;;;;-141.02;56.88;42782.19;5110110;28;20185;-63
2023/10/29 10:35:20;;;;;;;19.90;18.80;;;;;;;-141.02;56.91;42784.09;5110050;28;20375;-63
2023/10/29 10:37:54;;;;;;;19.88;18.88;;;;;;;-141.02;56.29;42818.66;5109883;28;20224;-63
2023/10/29 10:40:23;;;;;;;19.92;18.83;;;;;;;-141.02;55.52;42832.09;5109880;28;20197;-63
2023/10/29 10:42:55;;;;;;;20.08;18.98;;;;;;;-141.02;56.55;42870.50;5109580;28;20200;-64
2023/10/29 10:45:26;;;;;;;20.52;19.42;;;;;;;-141.02;55.84;42874.34;5109562;28;20639;-63
2023/10/29 10:47:55;;;;;;;20.10;19.00;;;;;;;-141.02;55.37;42834.00;5109816;28;20194;-65
2023/10/29 10:50:25;;;;;;;19.90;18.80;;;;;;;-141.02;55.70;42816.75;5109738;28;20584;-63
2023/10/29 10:52:52;;;;;;;19.67;18.58;;;;;;;-141.02;55.67;42862.81;5109404;28;20201;-63
2023/10/29 10:55:20;;;;;;;20.50;19.40;;;;;;;-141.02;54.70;42830.19;5109627;28;20198;-62
2023/10/29 10:57:49;;;;;;;19.95;18.85;;;;;;;-141.02;55.13;42862.81;5109280;28;20197;-67
2023/10/29 11:00:17;;;;;;;20.10;19.00;;;;;;;-141.02;56.08;42876.25;5109203;28;20194;-63
2023/10/29 11:02:45;;;;;;;19.83;18.83;;;;;;;-141.02;55.85;42891.59;5109551;28;20200;-63
2023/10/29 11:05:13;;;;;;;20.02;19.02;;;;;;;-141.02;55.38;42901.22;5109434;28;20270;-63
2023/10/29 11:07:42;;;;;;;20.20;19.10;;;;;;;-141.02;55.29;42903.13;5109068;28;20679;-62
2023/10/29 11:10:12;;;;;;;19.95;18.95;;;;;;;-141.02;55.13;42958.81;5109043;28;20207;-63
2023/10/29 11:12:40;;;;;;;20.15;19.05;;;;;;;-141.02;55.09;42928.09;5109335;28;20201;-63
2023/10/29 11:15:15;;;;;;;19.70;18.70;;;;;;;-141.02;55.44;42960.72;5109228;28;20272;-63
2023/10/29 11:17:58;;;;;;;19.77;18.77;;;;;;;-141.02;54.68;42962.66;5108645;28;20232;-63
2023/10/29 11:20:54;;;;;;;20.05;18.95;;;;;;;-141.02;54.71;42997.19;5109144;28;20228;-63
2023/10/29 11:23:27;;;;;;;19.92;18.83;;;;;;;-141.02;53.70;43002.97;5109128;28;20272;-63
2023/10/29 11:26:20;;;;;;;20.10;19.00;;;;;;;-141.02;53.63;43016.41;5108838;28;20195;-63
2023/10/29 11:28:47;;;;;;;20.33;19.23;;;;;;;-141.02;54.20;42993.34;5109050;28;20220;-63
2023/10/29 11:31:15;;;;;;;19.45;18.45;;;;;;;-141.02;55.38;43027.91;5094498;28;20198;-63
2023/10/29 11:33:43;;;;;;;19.60;18.60;;;;;;;-141.02;54.98;43029.84;5095338;28;20208;-62
2023/10/29 11:36:42;;;;;;;19.52;18.52;;;;;;;-141.02;54.87;43024.06;5095313;28;20194;-63
2023/10/29 11:39:31;;;;;;;20.30;19.20;;;;;;;-141.02;54.12;43052.88;5052614;28;20719;-62
2023/10/29 11:41:59;;;;;;;20.55;19.45;;;;;;;-141.02;54.76;43058.63;5091559;28;20208;-63
2023/10/29 11:44:27;;;;;;;20.45;19.35;;;;;;;-141.02;53.79;43050.97;5094850;28;20204;-63
2023/10/29 11:47:07;;;;;;;19.42;18.40;;;;;;;-141.02;54.30;43062.47;5094849;28;20691;-62
2023/10/29 11:50:12;;;;;;;19.63;18.52;;;;;;;-141.02;53.88;43093.19;5094711;28;20205;-63
2023/10/29 11:52:43;;;;;;;19.83;18.73;;;;;;;-141.02;53.20;43108.56;5094780;28;20200;-62
2023/10/29 11:55:12;;;;;;;19.50;18.50;;;;;;;-141.02;53.60;43135.44;5094862;28;20200;-63
2023/10/29 11:57:46;;;;;;;19.60;18.60;;;;;;;-141.02;53.73;43123.91;5094897;28;20205;-63
2023/10/29 12:00:14;;;;;;;19.83;18.73;;;;;;;-141.02;53.27;43127.75;5094456;28;20602;-63
2023/10/29 12:02:44;;;;;;;19.85;18.85;;;;;;;-141.02;54.16;43135.44;5094432;28;20229;-63
2023/10/29 12:05:12;;;;;;;20.10;19.00;;;;;;;-141.02;53.26;43145.03;5094746;28;20201;-63
2023/10/29 12:07:39;;;;;;;19.75;18.75;;;;;;;-141.02;54.53;43146.94;5094396;28;20194;-63
2023/10/29 12:10:07;;;;;;;19.75;18.70;;;;;;;-141.02;55.15;43158.47;5094623;28;20237;-63
2023/10/29 12:12:36;;;;;;;19.88;18.88;;;;;;;-141.02;54.87;43143.09;5094210;28;20193;-66
2023/10/29 12:15:07;;;;;;;19.95;18.85;;;;;;;-141.02;54.60;43158.47;5094139;28;20197;-63
2023/10/29 12:17:34;;;;;;;20.02;18.92;;;;;;;-141.02;54.34;43150.78;5093920;28;20186;-63
2023/10/29 12:20:01;;;;;;;20.42;19.23;;;;;;;-141.02;54.77;43168.06;5094406;28;20296;-63
2023/10/29 12:22:30;;;;;;;20.38;19.17;;;;;;;-141.02;55.81;43175.75;5093987;28;20193;-63
2023/10/29 12:24:59;;;;;;;20.05;18.95;;;;;;;-141.02;55.02;43166.16;5094010;28;20288;-63
2023/10/29 12:27:26;;;;;;;19.65;18.55;;;;;;;-141.02;54.80;43191.09;5093984;28;20233;-64